Time;durP1;ratioP1;P1;durP2;ratioP2;P2;SDS_P1;SDS_P2;PMS_P1;PMS_P2;Temp;Humidity;BMP_temperature;BMP_pressure;BME280_temperature;BME280_humidity;BME280_pressure;Samples;Min_cycle;Max_cycle;Signal;HPM_P1;HPM_P2
2023/01/22 00:00:27;;;;;;;19.58;7.40;;;-0.90;99.90;;;;;;4989622;28;20054;-70
2023/01/22 00:02:54;;;;;;;16.95;6.60;;;-1.00;99.90;;;;;;4990742;28;20042;-70
2023/01/22 00:05:20;;;;;;;16.38;7.03;;;-1.00;99.90;;;;;;4987247;28;20462;-70
2023/01/22 00:07:45;;;;;;;15.82;6.75;;;-1.00;99.90;;;;;;4982317;28;20483;-70
2023/01/22 00:10:11;;;;;;;18.45;7.80;;;-1.10;99.90;;;;;;4989784;28;20056;-69
2023/01/22 00:12:37;;;;;;;21.25;7.97;;;-1.10;99.90;;;;;;4990253;28;20041;-70
2023/01/22 00:15:03;;;;;;;18.80;8.15;;;-1.10;99.90;;;;;;4991025;28;20031;-70
2023/01/22 00:17:29;;;;;;;18.23;7.18;;;-1.10;99.90;;;;;;4989556;28;20041;-70
2023/01/22 00:19:55;;;;;;;17.55;7.82;;;-1.00;99.90;;;;;;4990664;28;20058;-70
2023/01/22 00:22:21;;;;;;;16.63;8.02;;;-1.00;99.90;;;;;;4990667;28;20623;-70
2023/01/22 00:24:46;;;;;;;19.58;6.75;;;-1.00;99.90;;;;;;4988394;28;20022;-71
2023/01/22 00:27:12;;;;;;;16.80;7.68;;;-0.90;99.90;;;;;;4989269;28;20031;-70
2023/01/22 00:29:37;;;;;;;20.55;7.95;;;-0.90;99.90;;;;;;4986705;28;20178;-71
2023/01/22 00:32:03;;;;;;;14.38;6.72;;;-0.80;99.90;;;;;;5004162;28;20042;-70
2023/01/22 00:34:29;;;;;;;16.60;7.20;;;-0.80;99.90;;;;;;4989969;28;20037;-70
2023/01/22 00:36:55;;;;;;;20.83;8.15;;;-0.70;99.90;;;;;;4988972;28;20026;-70
2023/01/22 00:39:20;;;;;;;17.05;6.80;;;-0.60;99.90;;;;;;4989481;28;20038;-70
2023/01/22 00:41:46;;;;;;;15.80;7.55;;;-0.60;99.90;;;;;;4990268;28;20125;-70
2023/01/22 00:44:11;;;;;;;14.85;6.82;;;-0.60;99.90;;;;;;4989482;28;20580;-70
2023/01/22 00:46:37;;;;;;;18.50;7.93;;;-0.60;99.90;;;;;;4989320;28;20506;-69
2023/01/22 00:49:03;;;;;;;14.68;6.88;;;-0.60;99.90;;;;;;4990317;28;20387;-69
2023/01/22 00:51:29;;;;;;;12.65;5.72;;;-0.70;99.90;;;;;;4989847;28;20069;-69
2023/01/22 00:53:55;;;;;;;18.35;7.38;;;-0.70;99.90;;;;;;4987651;28;20030;-72
2023/01/22 00:56:21;;;;;;;17.15;7.35;;;-0.60;99.90;;;;;;4989450;28;20038;-68
2023/01/22 00:58:46;;;;;;;16.40;6.50;;;-0.60;99.90;;;;;;4988629;28;20042;-70
2023/01/22 01:01:14;;;;;;;15.10;6.35;;;-0.60;99.90;;;;;;4988667;28;20038;-71
2023/01/22 01:03:40;;;;;;;19.00;6.70;;;-0.50;99.90;;;;;;4988762;28;20479;-70
2023/01/22 01:06:07;;;;;;;14.88;7.13;;;-0.50;99.90;;;;;;4990012;28;20093;-69
2023/01/22 01:08:37;;;;;;;17.85;7.03;;;-0.40;99.90;;;;;;4989581;28;20041;-71
2023/01/22 01:11:06;;;;;;;17.92;7.43;;;-0.30;99.90;;;;;;4987950;28;20105;-70
2023/01/22 01:13:37;;;;;;;15.80;6.63;;;-0.30;99.90;;;;;;4988950;28;20073;-70
2023/01/22 01:16:17;;;;;;;15.68;6.70;;;-0.20;99.90;;;;;;4989836;28;20149;-70
2023/01/22 01:18:43;;;;;;;16.10;7.07;;;-0.20;99.90;;;;;;4984186;28;20073;-70
2023/01/22 01:21:10;;;;;;;16.95;6.82;;;-0.20;99.90;;;;;;4988500;28;20030;-71
2023/01/22 01:23:36;;;;;;;16.52;6.10;;;-0.20;99.90;;;;;;4983788;28;20053;-69
2023/01/22 01:26:07;;;;;;;12.75;6.20;;;-0.10;99.90;;;;;;4985828;28;20093;-70
2023/01/22 01:28:36;;;;;;;15.00;6.05;;;0.00;99.90;;;;;;4987064;28;20077;-71
2023/01/22 01:31:07;;;;;;;12.98;6.20;;;0.00;99.90;;;;;;4989321;28;20455;-70
2023/01/22 01:33:33;;;;;;;10.25;4.85;;;0.00;99.90;;;;;;4988427;28;20034;-70
2023/01/22 01:36:00;;;;;;;10.85;4.55;;;0.20;99.90;;;;;;4988875;28;20426;-71
2023/01/22 01:38:25;;;;;;;10.27;4.70;;;0.30;99.90;;;;;;4988526;28;20038;-70
2023/01/22 01:40:51;;;;;;;7.80;3.72;;;0.40;99.90;;;;;;4988729;28;20030;-69
2023/01/22 01:43:17;;;;;;;6.68;3.13;;;0.50;99.90;;;;;;4988527;28;20046;-70
2023/01/22 01:45:43;;;;;;;7.57;3.85;;;0.60;99.90;;;;;;4988019;28;20026;-70
2023/01/22 01:48:15;;;;;;;8.32;4.13;;;0.60;99.90;;;;;;4987946;28;20034;-69
2023/01/22 01:50:43;;;;;;;10.45;4.55;;;0.60;99.90;;;;;;5000397;28;20034;-69
2023/01/22 01:53:09;;;;;;;10.30;4.18;;;0.60;99.90;;;;;;4987705;28;20062;-70
2023/01/22 01:55:38;;;;;;;10.68;4.63;;;0.60;99.90;;;;;;4987895;28;20073;-69
2023/01/22 01:58:09;;;;;;;7.50;3.70;;;0.60;99.90;;;;;;4987766;28;20042;-70
2023/01/22 02:00:36;;;;;;;8.27;3.50;;;0.60;99.90;;;;;;4984023;28;20038;-71
2023/01/22 02:03:02;;;;;;;7.20;3.78;;;0.60;99.90;;;;;;4988870;28;20081;-70
2023/01/22 02:05:33;;;;;;;8.48;3.72;;;0.60;99.90;;;;;;4988387;28;20065;-70
2023/01/22 02:07:59;;;;;;;7.75;3.47;;;0.60;99.90;;;;;;4988514;28;20034;-70
2023/01/22 02:10:24;;;;;;;11.50;3.90;;;0.70;99.90;;;;;;4988224;28;20557;-70
2023/01/22 02:12:54;;;;;;;9.18;3.08;;;0.70;99.90;;;;;;4987880;28;20134;-70
2023/01/22 02:15:20;;;;;;;8.57;3.50;;;0.70;99.90;;;;;;4987620;28;20040;-70
2023/01/22 02:17:47;;;;;;;7.00;3.72;;;0.80;99.90;;;;;;4986187;28;20109;-70
2023/01/22 02:20:12;;;;;;;9.82;3.70;;;0.70;99.90;;;;;;4988279;28;20038;-70
2023/01/22 02:22:39;;;;;;;6.97;3.45;;;0.80;99.90;;;;;;4987431;28;20084;-69
2023/01/22 02:25:06;;;;;;;7.90;3.92;;;0.80;99.90;;;;;;4986727;28;20525;-70
2023/01/22 02:27:32;;;;;;;9.63;3.10;;;0.80;99.90;;;;;;4988025;28;20030;-70
2023/01/22 02:29:57;;;;;;;9.05;3.60;;;0.70;99.90;;;;;;4986369;28;20105;-70
2023/01/22 02:32:23;;;;;;;8.80;3.85;;;0.80;99.90;;;;;;4982739;28;20089;-69
2023/01/22 02:34:49;;;;;;;9.27;3.22;;;0.80;99.90;;;;;;4987481;28;20057;-70
2023/01/22 02:37:14;;;;;;;9.95;3.45;;;0.90;99.90;;;;;;4988591;28;20031;-70
2023/01/22 02:39:40;;;;;;;8.35;3.20;;;0.90;99.90;;;;;;4987236;28;20042;-69
2023/01/22 02:42:07;;;;;;;9.32;3.42;;;0.90;99.90;;;;;;4986240;28;20038;-70
2023/01/22 02:44:33;;;;;;;7.63;3.70;;;1.00;99.90;;;;;;4987523;28;20030;-70
2023/01/22 02:46:58;;;;;;;12.23;2.80;;;1.00;99.90;;;;;;4987578;28;20042;-70
2023/01/22 02:49:24;;;;;;;6.63;2.58;;;1.10;99.90;;;;;;4987779;28;20512;-69
2023/01/22 02:51:49;;;;;;;8.02;3.47;;;1.10;99.90;;;;;;4986464;28;20049;-70
2023/01/22 02:54:15;;;;;;;9.90;3.00;;;1.10;99.90;;;;;;4986583;28;20033;-70
2023/01/22 02:56:40;;;;;;;7.18;3.25;;;1.10;99.90;;;;;;4985169;28;20054;-70
2023/01/22 02:59:06;;;;;;;7.72;3.38;;;1.00;99.90;;;;;;4988176;28;20038;-70
2023/01/22 03:01:32;;;;;;;8.05;3.15;;;1.10;99.90;;;;;;4987742;28;20409;-70
2023/01/22 03:04:00;;;;;;;8.45;3.42;;;1.00;99.90;;;;;;4988779;28;20117;-70
2023/01/22 03:06:28;;;;;;;7.30;3.05;;;1.10;99.90;;;;;;4987473;28;20046;-70
2023/01/22 03:08:56;;;;;;;10.63;3.03;;;1.20;99.90;;;;;;4987500;28;20038;-70
2023/01/22 03:11:22;;;;;;;8.80;3.22;;;1.20;99.90;;;;;;4987619;28;20121;-69
2023/01/22 03:22:02;;;;;;;4.85;2.13;;;1.30;99.90;;;;;;4983723;28;20106;-70
2023/01/22 03:24:28;;;;;;;5.80;2.30;;;1.30;99.90;;;;;;4987359;28;20054;-71
2023/01/22 03:26:53;;;;;;;9.60;3.40;;;1.40;99.90;;;;;;4987409;28;20121;-70
2023/01/22 03:29:19;;;;;;;10.40;3.22;;;1.40;99.90;;;;;;4986703;28;20035;-70
2023/01/22 03:31:47;;;;;;;8.30;3.47;;;1.40;99.90;;;;;;4983942;28;20034;-71
2023/01/22 03:34:18;;;;;;;5.30;2.67;;;1.50;99.90;;;;;;4990227;28;20077;-70
2023/01/22 03:36:44;;;;;;;4.32;2.33;;;1.50;99.90;;;;;;4991035;28;20053;-70
2023/01/22 03:39:10;;;;;;;6.88;2.15;;;1.50;99.90;;;;;;4991495;28;20061;-70
2023/01/22 03:41:36;;;;;;;5.63;2.67;;;1.50;99.90;;;;;;4990651;28;20042;-69
2023/01/22 03:44:02;;;;;;;6.65;2.40;;;1.50;99.90;;;;;;4990904;28;20081;-70
2023/01/22 03:46:28;;;;;;;5.72;2.60;;;1.40;99.90;;;;;;4986745;28;20048;-71
2023/01/22 03:48:54;;;;;;;5.63;2.70;;;1.40;99.90;;;;;;4991209;28;20081;-70
2023/01/22 03:51:20;;;;;;;7.35;2.35;;;1.30;99.90;;;;;;4990979;28;20057;-71
2023/01/22 03:53:47;;;;;;;5.55;2.30;;;1.30;99.90;;;;;;4990274;28;20336;-70
2023/01/22 03:56:19;;;;;;;6.70;2.25;;;1.20;99.90;;;;;;4991009;28;20398;-70
2023/01/22 03:58:45;;;;;;;4.35;2.45;;;1.30;99.90;;;;;;4988352;28;20054;-70
2023/01/22 04:01:13;;;;;;;6.18;2.65;;;1.20;99.90;;;;;;4990869;28;20034;-70
2023/01/22 04:03:39;;;;;;;6.28;3.03;;;1.30;99.90;;;;;;4990404;28;20046;-70
2023/01/22 04:06:06;;;;;;;5.07;2.30;;;1.20;99.90;;;;;;4989593;28;20283;-69
2023/01/22 04:08:33;;;;;;;6.78;2.22;;;1.20;99.90;;;;;;4989358;28;20084;-69
2023/01/22 04:10:59;;;;;;;6.22;2.47;;;1.20;99.90;;;;;;4990330;28;20120;-70
2023/01/22 04:13:27;;;;;;;4.53;1.95;;;1.20;99.90;;;;;;4990495;28;20034;-70
2023/01/22 04:15:53;;;;;;;5.78;2.63;;;1.20;99.90;;;;;;4991220;28;20031;-71
2023/01/22 04:18:19;;;;;;;7.20;2.78;;;1.10;99.90;;;;;;4989906;28;20655;-70
2023/01/22 04:20:47;;;;;;;7.32;2.85;;;1.10;99.90;;;;;;4986596;28;20041;-69
2023/01/22 04:23:13;;;;;;;5.82;3.13;;;1.10;99.90;;;;;;4989424;28;20418;-70
2023/01/22 04:25:38;;;;;;;5.40;2.63;;;1.10;99.90;;;;;;4988526;28;20038;-69
2023/01/22 04:28:05;;;;;;;6.55;2.80;;;1.10;99.90;;;;;;4991789;28;20042;-70
2023/01/22 04:30:30;;;;;;;5.75;2.88;;;1.20;99.90;;;;;;4990700;28;20049;-68
2023/01/22 04:32:56;;;;;;;8.90;2.70;;;1.20;99.90;;;;;;4990210;28;20050;-70
2023/01/22 04:35:22;;;;;;;7.15;3.20;;;1.30;99.90;;;;;;4990178;28;20042;-71
2023/01/22 04:37:48;;;;;;;8.75;3.50;;;1.20;99.90;;;;;;4989670;28;20567;-70
2023/01/22 04:40:14;;;;;;;7.63;2.78;;;1.10;99.90;;;;;;4989564;28;20030;-70
2023/01/22 04:42:39;;;;;;;9.73;3.25;;;1.10;99.90;;;;;;4989136;28;20027;-67
2023/01/22 04:45:06;;;;;;;7.68;3.08;;;1.10;99.90;;;;;;4988426;28;20034;-70
2023/01/22 04:47:31;;;;;;;9.25;3.05;;;1.00;99.90;;;;;;4989078;28;20128;-70
2023/01/22 04:49:57;;;;;;;7.95;2.63;;;1.10;99.90;;;;;;4989731;28;20030;-69
2023/01/22 04:52:22;;;;;;;8.15;3.30;;;1.00;99.90;;;;;;4987687;28;20038;-70
2023/01/22 04:54:50;;;;;;;6.40;3.20;;;1.10;99.90;;;;;;4989875;28;20034;-70
2023/01/22 04:57:16;;;;;;;6.75;3.13;;;1.10;99.90;;;;;;4990103;28;20109;-69
2023/01/22 04:59:42;;;;;;;8.35;3.53;;;1.10;99.90;;;;;;4986797;28;20240;-69
2023/01/22 05:02:07;;;;;;;8.65;3.55;;;1.10;99.90;;;;;;4990067;28;20506;-70
2023/01/22 05:04:33;;;;;;;7.90;3.45;;;1.10;99.90;;;;;;4989417;28;20464;-70
2023/01/22 05:06:59;;;;;;;9.73;3.47;;;1.20;99.90;;;;;;4988967;28;20026;-69
2023/01/22 05:09:25;;;;;;;9.35;4.25;;;1.10;99.90;;;;;;4990089;28;20034;-70
2023/01/22 05:11:51;;;;;;;9.73;3.63;;;1.10;99.90;;;;;;4988387;28;20433;-70
2023/01/22 05:14:16;;;;;;;8.00;2.60;;;1.00;99.90;;;;;;4990190;28;20041;-69
2023/01/22 05:16:42;;;;;;;7.88;3.88;;;1.10;99.90;;;;;;4989133;28;20030;-70
2023/01/22 05:19:08;;;;;;;8.73;3.28;;;1.20;99.90;;;;;;4990012;28;20085;-71
2023/01/22 05:21:33;;;;;;;14.50;4.10;;;1.20;99.90;;;;;;4986412;28;20088;-70
2023/01/22 05:23:59;;;;;;;11.57;3.45;;;1.20;99.90;;;;;;4989433;28;20110;-70
2023/01/22 05:26:24;;;;;;;14.05;4.03;;;1.20;99.90;;;;;;5004640;28;20435;-71
2023/01/22 05:28:50;;;;;;;8.85;3.30;;;1.20;99.90;;;;;;4989510;28;20038;-70
2023/01/22 05:31:15;;;;;;;7.60;3.55;;;1.10;99.90;;;;;;4990124;28;20076;-70
2023/01/22 05:33:41;;;;;;;10.77;3.45;;;1.20;99.90;;;;;;4989001;28;20134;-70
2023/01/22 05:36:09;;;;;;;10.43;4.13;;;1.30;99.90;;;;;;4989876;28;20061;-70
2023/01/22 05:38:34;;;;;;;9.60;3.22;;;1.30;99.90;;;;;;4990009;28;20070;-69
2023/01/22 05:41:00;;;;;;;8.18;3.40;;;1.20;99.90;;;;;;4992066;28;20049;-70
2023/01/22 05:43:25;;;;;;;6.68;3.38;;;1.20;99.90;;;;;;4996283;28;20030;-71
2023/01/22 05:45:51;;;;;;;8.40;3.40;;;1.20;99.90;;;;;;4998218;28;20033;-71
2023/01/22 05:48:16;;;;;;;9.35;3.30;;;1.20;99.90;;;;;;4998865;28;20048;-70
2023/01/22 05:50:42;;;;;;;9.23;3.10;;;1.30;99.90;;;;;;4995618;28;20034;-70
2023/01/22 05:53:08;;;;;;;7.47;3.20;;;1.30;99.90;;;;;;4998720;28;20034;-70
2023/01/22 05:55:34;;;;;;;8.35;2.75;;;1.30;99.90;;;;;;4990356;28;20483;-70
2023/01/22 05:58:00;;;;;;;5.85;2.53;;;1.30;99.90;;;;;;4987173;28;20430;-70
2023/01/22 06:00:26;;;;;;;10.10;2.47;;;1.40;99.90;;;;;;4987321;28;20490;-69
2023/01/22 06:02:58;;;;;;;6.78;3.03;;;1.40;99.90;;;;;;4987903;28;20045;-70
2023/01/22 06:05:25;;;;;;;8.18;3.28;;;1.40;99.90;;;;;;4984535;28;20506;-71
2023/01/22 06:07:50;;;;;;;9.02;3.17;;;1.30;99.90;;;;;;4988199;28;20514;-70
2023/01/22 06:10:16;;;;;;;7.47;3.13;;;1.40;99.90;;;;;;4987918;28;20061;-69
2023/01/22 06:12:42;;;;;;;5.38;2.85;;;1.30;99.90;;;;;;4987487;28;20638;-70
2023/01/22 06:15:09;;;;;;;10.82;3.85;;;1.30;99.90;;;;;;4988745;28;20076;-70
2023/01/22 06:17:34;;;;;;;6.82;3.15;;;1.30;99.90;;;;;;4983828;28;20031;-70
2023/01/22 06:20:00;;;;;;;7.30;2.80;;;1.30;99.90;;;;;;4988162;28;20105;-70
2023/01/22 06:22:26;;;;;;;8.23;3.22;;;1.30;99.90;;;;;;4987779;28;20470;-70
2023/01/22 06:24:51;;;;;;;6.10;2.97;;;1.40;99.90;;;;;;4986314;28;20073;-70
2023/01/22 06:27:17;;;;;;;8.52;3.70;;;1.40;99.90;;;;;;4987900;28;20121;-70
2023/01/22 06:29:43;;;;;;;7.97;3.22;;;1.40;99.90;;;;;;4987677;28;20662;-68
2023/01/22 06:32:08;;;;;;;8.73;3.53;;;1.40;99.90;;;;;;4986627;28;20034;-70
2023/01/22 06:34:34;;;;;;;7.45;3.15;;;1.40;99.90;;;;;;4987936;28;20092;-70
2023/01/22 06:36:59;;;;;;;7.57;3.17;;;1.50;99.90;;;;;;4986467;28;20066;-69
2023/01/22 06:39:25;;;;;;;5.50;3.05;;;1.40;99.90;;;;;;4987592;28;20038;-70
2023/01/22 06:41:50;;;;;;;6.93;2.97;;;1.30;99.90;;;;;;4987658;28;20490;-70
2023/01/22 06:44:17;;;;;;;8.07;3.40;;;1.30;99.90;;;;;;4987481;28;20443;-70
2023/01/22 06:46:44;;;;;;;7.07;3.33;;;1.40;99.90;;;;;;4986515;28;20344;-70
2023/01/22 06:49:10;;;;;;;6.00;2.50;;;1.40;99.90;;;;;;4988287;28;20039;-70
2023/01/22 06:51:36;;;;;;;7.78;3.55;;;1.40;99.90;;;;;;4987922;28;20589;-70
2023/01/22 06:54:02;;;;;;;7.00;3.05;;;1.30;99.90;;;;;;4987267;28;20034;-70
2023/01/22 06:56:27;;;;;;;7.78;2.85;;;1.30;99.90;;;;;;4987873;28;20034;-71
2023/01/22 06:58:53;;;;;;;7.65;3.33;;;1.40;99.90;;;;;;4987607;28;20038;-70
2023/01/22 07:01:18;;;;;;;6.53;2.72;;;1.30;99.90;;;;;;4988044;28;20042;-70
2023/01/22 07:03:47;;;;;;;6.80;3.00;;;1.30;99.90;;;;;;4985680;28;20402;-68
2023/01/22 07:06:13;;;;;;;5.75;2.70;;;1.30;99.90;;;;;;4988615;28;20034;-70
2023/01/22 07:08:40;;;;;;;7.40;3.08;;;1.30;99.90;;;;;;4991134;28;20117;-70
2023/01/22 07:11:05;;;;;;;6.07;3.30;;;1.30;99.90;;;;;;4990254;28;20030;-71
2023/01/22 07:13:31;;;;;;;4.63;2.65;;;1.30;99.90;;;;;;4989598;28;20089;-70
2023/01/22 07:16:01;;;;;;;6.88;2.78;;;1.30;99.90;;;;;;4990086;28;21565;-70
2023/01/22 07:18:27;;;;;;;4.57;2.63;;;1.30;99.90;;;;;;4991582;28;20121;-70
2023/01/22 07:20:53;;;;;;;8.63;3.78;;;1.30;99.90;;;;;;4992150;28;20126;-70
2023/01/22 07:23:19;;;;;;;6.03;2.83;;;1.40;99.90;;;;;;4991922;28;20085;-71
2023/01/22 07:25:44;;;;;;;6.57;3.10;;;1.20;99.90;;;;;;4988851;28;20502;-70
2023/01/22 07:28:13;;;;;;;11.98;3.90;;;1.30;99.90;;;;;;4991644;28;20095;-71
2023/01/22 07:30:41;;;;;;;7.68;2.65;;;1.30;99.90;;;;;;4991036;28;20515;-70
2023/01/22 07:33:09;;;;;;;7.10;2.67;;;1.30;99.90;;;;;;4991321;28;20046;-71
2023/01/22 07:35:34;;;;;;;10.85;3.03;;;1.30;99.90;;;;;;4991926;28;20087;-70
2023/01/22 07:38:00;;;;;;;7.35;2.72;;;1.20;99.90;;;;;;4992175;28;20026;-69
2023/01/22 07:40:26;;;;;;;6.47;3.03;;;1.20;99.90;;;;;;4990056;28;20034;-70
2023/01/22 07:42:53;;;;;;;5.45;2.40;;;1.20;99.90;;;;;;4990564;28;20039;-70
2023/01/22 07:45:19;;;;;;;7.10;3.40;;;1.10;99.90;;;;;;4981908;28;20089;-70
2023/01/22 07:47:56;;;;;;;5.78;3.08;;;1.10;99.90;;;;;;4987360;28;20409;-70
2023/01/22 07:50:23;;;;;;;10.35;2.83;;;1.20;99.90;;;;;;4987863;28;20030;-70
2023/01/22 07:52:49;;;;;;;8.32;3.22;;;1.20;99.90;;;;;;4990519;28;20034;-70
2023/01/22 07:55:14;;;;;;;7.00;3.10;;;1.20;99.90;;;;;;4989761;28;20034;-70
2023/01/22 07:57:40;;;;;;;5.03;2.28;;;1.20;99.90;;;;;;4990196;28;20026;-70
2023/01/22 08:00:09;;;;;;;6.97;2.83;;;1.20;99.90;;;;;;4990765;28;20043;-70
2023/01/22 08:02:38;;;;;;;5.10;2.72;;;1.20;99.90;;;;;;4989668;28;20121;-70
2023/01/22 08:05:05;;;;;;;7.95;2.40;;;1.20;99.90;;;;;;4988755;28;20049;-71
2023/01/22 08:07:30;;;;;;;8.40;3.20;;;1.20;99.90;;;;;;4990638;28;20129;-71
2023/01/22 08:09:56;;;;;;;6.60;3.10;;;1.30;99.90;;;;;;4988814;28;20121;-71
2023/01/22 08:12:22;;;;;;;6.20;2.65;;;1.30;99.90;;;;;;4990724;28;20031;-70
2023/01/22 08:14:48;;;;;;;6.10;3.00;;;1.30;99.90;;;;;;5005203;28;20045;-69
2023/01/22 08:17:13;;;;;;;8.43;3.05;;;1.30;99.90;;;;;;5008790;28;20406;-70
2023/01/22 08:19:39;;;;;;;5.68;2.28;;;1.30;99.90;;;;;;5001238;28;20045;-70
2023/01/22 08:22:05;;;;;;;4.13;2.17;;;1.30;99.90;;;;;;5007183;28;20171;-70
2023/01/22 08:24:30;;;;;;;4.97;2.45;;;1.30;99.90;;;;;;5004721;28;20034;-71
2023/01/22 08:26:56;;;;;;;8.32;2.75;;;1.40;99.90;;;;;;5004419;28;20439;-70
2023/01/22 08:29:22;;;;;;;4.38;2.25;;;1.40;99.90;;;;;;5006321;28;20585;-70
2023/01/22 08:31:49;;;;;;;4.53;2.35;;;1.30;99.90;;;;;;5006986;28;20037;-69
2023/01/22 08:34:14;;;;;;;11.82;3.80;;;1.30;99.90;;;;;;5009482;28;20240;-71
2023/01/22 08:36:40;;;;;;;5.93;1.95;;;1.40;99.90;;;;;;5009383;28;20156;-70
2023/01/22 08:39:05;;;;;;;5.82;2.15;;;1.30;99.90;;;;;;5009932;28;20042;-70
2023/01/22 08:41:31;;;;;;;6.15;2.95;;;1.30;99.90;;;;;;5002154;28;20521;-71
2023/01/22 08:43:56;;;;;;;6.70;2.55;;;1.30;99.90;;;;;;5009223;28;20038;-70
2023/01/22 08:46:22;;;;;;;3.92;1.98;;;1.30;99.90;;;;;;5008513;28;20053;-70
2023/01/22 08:48:49;;;;;;;4.93;2.25;;;1.40;99.90;;;;;;5009460;28;20145;-69
2023/01/22 08:51:15;;;;;;;5.32;2.67;;;1.40;99.90;;;;;;5006056;28;20030;-70
2023/01/22 08:53:41;;;;;;;4.63;2.47;;;1.50;99.90;;;;;;5004598;28;20049;-70
2023/01/22 08:56:07;;;;;;;9.70;2.50;;;1.50;99.90;;;;;;5007112;28;20030;-71
2023/01/22 08:58:32;;;;;;;5.68;2.00;;;1.50;99.90;;;;;;5008836;28;20073;-71
2023/01/22 09:00:58;;;;;;;4.57;2.28;;;1.50;99.90;;;;;;5006325;28;20080;-71
2023/01/22 09:03:24;;;;;;;4.88;2.22;;;1.50;99.90;;;;;;5006777;28;20386;-72
2023/01/22 09:05:52;;;;;;;9.20;2.50;;;1.50;99.90;;;;;;5007310;28;20053;-71
2023/01/22 09:08:18;;;;;;;5.80;2.22;;;1.60;99.90;;;;;;5008110;28;20042;-70
2023/01/22 09:10:44;;;;;;;9.82;2.25;;;1.50;99.90;;;;;;5006614;28;20037;-70
2023/01/22 09:13:10;;;;;;;9.23;2.55;;;1.50;99.90;;;;;;5007169;28;20053;-70
2023/01/22 09:15:36;;;;;;;4.70;2.03;;;1.50;99.90;;;;;;5007688;28;20041;-70
2023/01/22 09:18:01;;;;;;;4.93;2.33;;;1.40;99.90;;;;;;5005895;28;20231;-70
2023/01/22 09:20:27;;;;;;;4.60;2.08;;;1.40;99.90;;;;;;5007611;28;20120;-70
2023/01/22 09:22:53;;;;;;;7.45;2.38;;;1.40;99.90;;;;;;5007703;28;20118;-70
2023/01/22 09:25:19;;;;;;;4.57;2.10;;;1.50;99.90;;;;;;5006495;28;20045;-69
2023/01/22 09:27:44;;;;;;;4.82;2.50;;;1.50;99.90;;;;;;5010140;28;20038;-70
2023/01/22 09:30:13;;;;;;;8.02;2.40;;;1.60;99.90;;;;;;5005707;28;20061;-69
2023/01/22 09:32:39;;;;;;;5.38;2.25;;;1.60;99.90;;;;;;5002896;28;20038;-70
2023/01/22 09:35:07;;;;;;;4.53;2.65;;;1.70;99.90;;;;;;5007284;28;20038;-68
2023/01/22 09:37:32;;;;;;;4.70;2.20;;;1.60;99.90;;;;;;5007471;28;20065;-70
2023/01/22 09:39:58;;;;;;;10.18;2.60;;;1.70;99.90;;;;;;5007154;28;21601;-70
2023/01/22 09:42:36;;;;;;;5.88;2.53;;;1.70;99.90;;;;;;5011194;28;20029;-70
2023/01/22 09:45:08;;;;;;;8.25;2.50;;;1.70;99.90;;;;;;5011198;28;20038;-70
2023/01/22 09:48:03;;;;;;;4.57;2.20;;;1.70;99.90;;;;;;5007011;28;20493;-69
2023/01/22 09:50:32;;;;;;;6.07;2.35;;;1.70;99.90;;;;;;5000061;28;20041;-70
2023/01/22 09:53:02;;;;;;;6.28;2.70;;;1.80;99.90;;;;;;4995234;28;20122;-70
2023/01/22 09:55:32;;;;;;;4.72;2.22;;;1.80;99.90;;;;;;4996016;28;20041;-70
2023/01/22 09:58:01;;;;;;;5.35;2.17;;;1.80;99.90;;;;;;5001820;28;20550;-70
2023/01/22 10:00:43;;;;;;;9.95;2.90;;;1.80;99.90;;;;;;5001764;28;20085;-71
2023/01/22 10:03:36;;;;;;;5.70;2.80;;;1.80;99.90;;;;;;4993091;28;20038;-69
2023/01/22 10:06:19;;;;;;;5.00;2.40;;;1.90;99.90;;;;;;5001090;28;20109;-69
2023/01/22 10:09:04;;;;;;;5.97;2.80;;;1.90;99.90;;;;;;5003686;28;20033;-70
2023/01/22 10:11:29;;;;;;;4.38;2.10;;;2.00;99.90;;;;;;5000574;28;20041;-71
2023/01/22 10:13:58;;;;;;;7.40;2.97;;;1.90;99.90;;;;;;5001490;28;20048;-70
2023/01/22 10:16:24;;;;;;;6.57;2.10;;;2.00;99.90;;;;;;5002792;28;20022;-71
2023/01/22 10:19:05;;;;;;;6.65;1.70;;;2.00;99.90;;;;;;5005648;28;20056;-69
2023/01/22 10:21:40;;;;;;;5.50;1.70;;;2.10;99.90;;;;;;5008674;28;20038;-71
2023/01/22 10:24:09;;;;;;;3.53;1.50;;;2.00;99.90;;;;;;5006284;28;20103;-70
2023/01/22 10:26:36;;;;;;;4.50;1.98;;;2.10;99.90;;;;;;5009590;28;20069;-71
2023/01/22 10:29:07;;;;;;;8.95;1.90;;;2.00;99.90;;;;;;5003012;28;20036;-70
2023/01/22 10:31:39;;;;;;;5.32;2.08;;;1.80;99.90;;;;;;4996376;28;20065;-71
2023/01/22 10:34:46;;;;;;;4.40;2.60;;;1.80;99.90;;;;;;4996390;28;20511;-71
2023/01/22 10:37:15;;;;;;;6.68;2.08;;;1.80;99.90;;;;;;4973108;28;20042;-71
2023/01/22 10:39:43;;;;;;;5.43;2.28;;;1.70;99.90;;;;;;5003534;28;20040;-70
2023/01/22 10:42:19;;;;;;;4.20;1.80;;;1.70;99.90;;;;;;5002833;28;20120;-70
2023/01/22 10:44:45;;;;;;;4.63;1.92;;;1.60;99.90;;;;;;5001066;28;20044;-71
2023/01/22 10:47:25;;;;;;;5.57;3.15;;;1.60;99.90;;;;;;5002935;28;20155;-70
2023/01/22 10:50:15;;;;;;;10.00;3.40;;;1.60;99.90;;;;;;4995539;28;20466;-70
2023/01/22 10:52:50;;;;;;;4.25;2.40;;;1.50;99.90;;;;;;5015083;28;20048;-71
2023/01/22 10:55:49;;;;;;;3.25;1.98;;;1.50;99.90;;;;;;5002965;28;20052;-71
2023/01/22 10:58:17;;;;;;;6.35;2.72;;;1.50;99.90;;;;;;4999274;28;20083;-71
2023/01/22 11:00:42;;;;;;;4.15;1.80;;;1.50;99.90;;;;;;5018221;28;21496;-70
2023/01/22 11:03:21;;;;;;;4.50;2.55;;;1.60;99.90;;;;;;4990058;28;20038;-71
2023/01/22 11:05:53;;;;;;;4.32;2.30;;;1.70;99.90;;;;;;5003030;28;20080;-70
2023/01/22 11:08:20;;;;;;;6.47;2.53;;;1.70;99.90;;;;;;4997146;28;20042;-71
2023/01/22 11:11:07;;;;;;;6.20;2.42;;;1.80;99.90;;;;;;4999106;28;20510;-70
2023/01/22 11:13:53;;;;;;;4.00;1.90;;;1.80;99.90;;;;;;5002618;28;20026;-71
2023/01/22 11:16:21;;;;;;;5.05;2.08;;;1.90;99.90;;;;;;4996926;28;20179;-70
2023/01/22 11:19:05;;;;;;;10.95;2.58;;;2.00;99.90;;;;;;5000020;28;20121;-71
2023/01/22 11:21:38;;;;;;;5.25;2.10;;;2.00;99.90;;;;;;5002878;28;20046;-70
2023/01/22 11:24:17;;;;;;;4.22;1.98;;;2.00;99.90;;;;;;5002536;28;20402;-71
2023/01/22 11:26:51;;;;;;;7.05;2.95;;;2.00;99.90;;;;;;4992805;28;20101;-70
2023/01/22 11:29:44;;;;;;;8.15;3.38;;;2.10;99.90;;;;;;5016642;28;20038;-72
2023/01/22 11:32:47;;;;;;;5.32;2.50;;;2.00;99.90;;;;;;5002305;28;20044;-70
2023/01/22 11:35:13;;;;;;;4.57;2.33;;;2.10;99.90;;;;;;5001423;28;20112;-71
2023/01/22 11:38:09;;;;;;;6.22;2.90;;;2.10;99.90;;;;;;5004416;28;20058;-71
2023/01/22 11:40:52;;;;;;;5.65;2.45;;;2.10;99.90;;;;;;5002052;28;20098;-71
2023/01/22 11:43:46;;;;;;;6.00;2.30;;;2.10;99.90;;;;;;5008839;28;20066;-71
2023/01/22 11:46:33;;;;;;;6.25;2.33;;;2.10;99.90;;;;;;4997288;28;20506;-72
2023/01/22 11:49:07;;;;;;;5.60;2.80;;;2.10;99.90;;;;;;5001929;28;20469;-70
2023/01/22 11:51:48;;;;;;;3.83;2.33;;;2.10;99.90;;;;;;5004634;28;20040;-72
2023/01/22 11:54:29;;;;;;;6.95;2.70;;;2.20;99.90;;;;;;5001673;28;20066;-72
2023/01/22 11:57:06;;;;;;;;;;;2.20;99.90;;;;;;5008733;28;20145;-70
2023/01/22 11:59:50;;;;;;;6.95;2.85;;;2.20;99.90;;;;;;5004969;28;20404;-71
2023/01/22 12:02:25;;;;;;;6.55;2.83;;;2.20;99.90;;;;;;5003389;28;20042;-71
2023/01/22 12:05:08;;;;;;;4.88;2.40;;;2.20;99.90;;;;;;5007285;28;20040;-71
2023/01/22 12:07:46;;;;;;;8.32;3.47;;;2.30;99.90;;;;;;5020791;28;20046;-71
2023/01/22 12:10:25;;;;;;;6.40;2.55;;;2.40;99.90;;;;;;5009578;28;20065;-71
2023/01/22 12:13:04;;;;;;;6.15;3.05;;;2.40;99.90;;;;;;5009433;28;20454;-71
2023/01/22 12:15:41;;;;;;;6.27;2.57;;;2.50;99.90;;;;;;5009758;28;20644;-71
2023/01/22 12:18:49;;;;;;;7.80;2.92;;;2.40;99.90;;;;;;5005756;28;20057;-71
2023/01/22 12:21:34;;;;;;;7.30;2.63;;;2.50;99.90;;;;;;4998973;28;20057;-71
2023/01/22 12:24:11;;;;;;;4.38;2.10;;;2.70;99.90;;;;;;5004051;28;20048;-71
2023/01/22 12:26:43;;;;;;;6.90;2.55;;;2.70;99.90;;;;;;5007968;28;20033;-71
2023/01/22 12:29:17;;;;;;;5.63;2.78;;;2.70;99.90;;;;;;5006085;28;20036;-70
2023/01/22 12:32:03;;;;;;;5.53;2.30;;;2.70;99.90;;;;;;5007319;28;20034;-71
2023/01/22 12:34:38;;;;;;;4.63;2.00;;;2.80;99.90;;;;;;4999917;28;20045;-72
2023/01/22 12:37:06;;;;;;;3.92;1.75;;;2.90;99.90;;;;;;5003882;28;20080;-71
2023/01/22 12:39:37;;;;;;;5.50;2.10;;;2.90;99.90;;;;;;5005230;28;20045;-70
2023/01/22 12:42:19;;;;;;;;;;;2.90;99.90;;;;;;4994694;28;20458;-71
2023/01/22 12:45:12;;;;;;;7.40;2.70;;;2.90;99.90;;;;;;5002856;28;20011;-70
2023/01/22 12:47:43;;;;;;;4.18;1.58;;;2.90;99.90;;;;;;5017101;28;20095;-70
2023/01/22 12:50:23;;;;;;;5.72;2.00;;;2.90;99.90;;;;;;5001866;28;20076;-70
2023/01/22 12:53:38;;;;;;;10.77;2.03;;;3.00;99.90;;;;;;5004480;28;20859;-71
2023/01/22 12:56:09;;;;;;;5.00;1.90;;;2.90;99.90;;;;;;4998399;28;20133;-70
2023/01/22 12:58:37;;;;;;;6.07;2.53;;;3.00;99.90;;;;;;5002290;28;20476;-72
2023/01/22 13:01:10;;;;;;;5.82;1.88;;;2.90;99.90;;;;;;5001375;28;20049;-70
2023/01/22 13:03:37;;;;;;;5.63;2.25;;;2.90;99.90;;;;;;5001278;28;20042;-71
2023/01/22 13:06:37;;;;;;;6.03;2.05;;;3.00;99.90;;;;;;5005049;28;20065;-70
2023/01/22 13:09:05;;;;;;;7.88;2.45;;;3.00;99.90;;;;;;5003993;28;20636;-71
2023/01/22 13:11:30;;;;;;;4.38;2.13;;;3.00;99.90;;;;;;5006626;28;20120;-71
2023/01/22 13:14:25;;;;;;;6.15;2.17;;;2.80;99.90;;;;;;5004457;28;20153;-70